Terminal Aerodrome Forecast
Issued by NWS Missoula, MT

Home | Current Version | Previous Version | Text Only | Print | Product List | Glossary On
Versions: 1 2 3 4 5 6 7 8 9 10 11 12 13
580
FTUS45 KMSO 221123
TAFMSO
TAF
KMSO 221123Z 2212/2312 VRB05KT P6SM SKC
     FM221900 32014G25KT P6SM SKC
     FM230300 34008KT P6SM SKC=

USA.gov is the U.S. government's official web portal to all federal, state and local government web resources and services.